This is the latest recevied weather packets stored in our database for station/object Riedlingn. If no packets are shown the sender has not sent any weather packets the latest 10 day(s).
| Time | Temp. | Humidity | Pressure | Rain* | Wind** | Luminosity | Snow |
|---|---|---|---|---|---|---|---|
| 1787886129 | 19.44° C | 88% | 1014.4 hPa | 0 mm | - | - | - |
| 1787884330 | 19.44° C | 89% | 1014.1 hPa | 0 mm | - | - | - |
| 1787882529 | 19.44° C | 88% | 1014.2 hPa | 0 mm | - | - | - |
| 1787880729 | 19.44° C | 87% | 1014.2 hPa | 0 mm | - | - | - |
| 1787878929 | 20° C | 85% | 1014.2 hPa | 0 mm | - | - | - |
| 1787877131 | 20.56° C | 84% | 1014.2 hPa | 0 mm | - | - | - |
| 1787875331 | 20.56° C | 84% | 1014.1 hPa | 0 mm | - | - | - |
| 1787873530 | 21.11° C | 81% | 1014.3 hPa | 0 mm | - | - | - |
| 1787871732 | 21.67° C | 80% | 1014.4 hPa | 0 mm | - | - | - |
| 1787869931 | 22.22° C | 77% | 1014.7 hPa | 0 mm | - | - | - |
| 1787866332 | 23.33° C | 73% | 1014.9 hPa | 0 mm | - | - | - |
| 1787864531 | 23.89° C | 71% | 1014.8 hPa | 0 mm | - | - | - |
| 1787862731 | 24.44° C | 70% | 1015 hPa | 0 mm | - | - | - |
| 1787860931 | 25° C | 69% | 1014.7 hPa | 0 mm | - | - | - |
| 1787859131 | 25.56° C | 67% | 1015.2 hPa | 0 mm | - | - | - |
| 1787857331 | 26.11° C | 66% | 1015.1 hPa | 0 mm | - | - | - |
| 1787855530 | 27.22° C | 62% | 1014.9 hPa | 0 mm | - | - | - |
| 1787853731 | 27.78° C | 58% | 1015.1 hPa | 0 mm | - | - | - |
| 1787851930 | 28.33° C | 54% | 1015.1 hPa | 0 mm | - | - | - |
| 1787850130 | 29.44° C | 50% | 1015.4 hPa | 0 mm | - | - | - |
| 1787848330 | 30° C | 48% | 1015.3 hPa | 0 mm | - | - | - |
| 1787846530 | 30° C | 45% | 1015.3 hPa | 0 mm | - | - | - |
| 1787844731 | 30.56° C | 44% | 1015.2 hPa | 0 mm | - | - | - |
| 1787842931 | 30.56° C | 43% | 1015.4 hPa | 0 mm | - | - | - |
| 1787841132 | 30° C | 49% | 1015.2 hPa | 0 mm | - | - | - |
* Rain since midnight (hover to see other rain measurements)
** Current wind speed in m/s (hover to see current wind gust speed)